createdAt,value
2018-09-22T00:01:40.593Z,13.60
2018-09-22T00:04:07.841Z,13.50
2018-09-22T00:06:35.101Z,13.60
2018-09-22T00:09:02.423Z,13.60
2018-09-22T00:11:29.685Z,13.50
2018-09-22T00:13:56.933Z,13.40
2018-09-22T00:16:24.184Z,13.40
2018-09-22T00:18:51.466Z,13.40
2018-09-22T00:21:18.829Z,13.40
2018-09-22T00:23:46.085Z,13.40
2018-09-22T00:26:13.365Z,13.30
2018-09-22T00:28:40.635Z,13.30
2018-09-22T00:31:07.910Z,13.30
2018-09-22T00:33:35.193Z,13.30
2018-09-22T00:36:02.478Z,13.30
2018-09-22T00:38:29.800Z,13.40
2018-09-22T00:40:57.072Z,13.40
2018-09-22T00:43:24.328Z,13.50
2018-09-22T00:45:51.712Z,13.40
2018-09-22T00:48:18.969Z,13.40
2018-09-22T00:50:46.222Z,13.40
2018-09-22T00:53:13.480Z,13.40
2018-09-22T00:55:40.722Z,13.30
2018-09-22T00:58:08.005Z,13.20
2018-09-22T01:00:35.273Z,13.30
2018-09-22T01:03:02.576Z,13.20
2018-09-22T01:05:29.866Z,13.20
2018-09-22T01:07:57.165Z,13.20
2018-09-22T01:10:24.482Z,13.10
2018-09-22T01:12:51.769Z,13.00
2018-09-22T01:15:19.053Z,13.00
2018-09-22T01:17:46.353Z,12.90
2018-09-22T01:20:13.669Z,13.00
2018-09-22T01:22:40.974Z,12.80
2018-09-22T01:25:08.284Z,12.90
2018-09-22T01:27:35.552Z,12.80
2018-09-22T01:30:02.877Z,12.80
2018-09-22T01:32:30.252Z,12.90
2018-09-22T01:34:57.535Z,12.80
2018-09-22T01:37:24.835Z,12.90
2018-09-22T01:39:52.128Z,12.80
2018-09-22T01:42:19.424Z,12.90
2018-09-22T01:44:46.711Z,12.90
2018-09-22T01:47:13.990Z,12.90
2018-09-22T01:49:41.325Z,12.80
2018-09-22T01:52:08.618Z,12.80
2018-09-22T01:54:35.904Z,12.80
2018-09-22T01:57:03.192Z,12.90
2018-09-22T01:59:30.591Z,12.80
2018-09-22T02:01:57.876Z,12.80
2018-09-22T02:04:25.149Z,12.80
2018-09-22T02:06:52.419Z,12.80
2018-09-22T02:09:19.693Z,12.80
2018-09-22T02:11:46.961Z,12.80
2018-09-22T02:14:14.249Z,12.90
2018-09-22T02:16:41.534Z,12.80
2018-09-22T02:19:08.833Z,12.70
2018-09-22T02:21:36.164Z,12.80
2018-09-22T02:24:03.461Z,12.80
2018-09-22T02:26:30.781Z,12.60
2018-09-22T02:28:58.065Z,12.70
2018-09-22T02:31:25.349Z,12.80
2018-09-22T02:33:52.633Z,12.80
2018-09-22T02:36:19.930Z,12.90
2018-09-22T02:38:47.208Z,12.80
2018-09-22T02:41:14.497Z,12.70
2018-09-22T02:43:41.769Z,12.80
2018-09-22T02:46:09.361Z,12.70
2018-09-22T02:48:36.685Z,12.70
2018-09-22T02:51:04.017Z,12.70
2018-09-22T02:53:31.352Z,12.70
2018-09-22T02:55:58.647Z,12.60
2018-09-22T02:58:25.933Z,12.60
2018-09-22T03:00:53.209Z,12.60
2018-09-22T03:03:20.482Z,12.50
2018-09-22T03:05:47.749Z,12.70
2018-09-22T03:08:15.094Z,12.60
2018-09-22T03:10:42.349Z,12.60
2018-09-22T03:13:09.610Z,12.60
2018-09-22T03:15:36.860Z,12.60
2018-09-22T03:18:04.125Z,12.50
2018-09-22T03:20:31.441Z,12.40
2018-09-22T03:22:58.744Z,12.40
2018-09-22T03:25:26.012Z,12.40
2018-09-22T03:27:53.301Z,12.50
2018-09-22T03:30:20.557Z,12.50
2018-09-22T03:32:47.838Z,12.50
2018-09-22T03:35:15.107Z,12.50
2018-09-22T03:37:42.376Z,12.50
2018-09-22T03:40:09.634Z,12.50
2018-09-22T03:42:36.932Z,12.50
2018-09-22T03:45:04.249Z,12.60
2018-09-22T03:47:31.508Z,12.50
2018-09-22T03:49:58.755Z,12.50
2018-09-22T03:52:26.006Z,12.50
2018-09-22T03:54:53.249Z,12.50
2018-09-22T03:57:20.533Z,12.50
2018-09-22T03:59:47.784Z,12.50
2018-09-22T04:02:15.053Z,12.40
2018-09-22T04:04:42.331Z,12.40
2018-09-22T04:07:09.565Z,12.40
2018-09-22T04:09:36.829Z,12.40
2018-09-22T04:12:04.097Z,12.50
2018-09-22T04:14:31.412Z,12.30
2018-09-22T04:16:58.686Z,12.30
2018-09-22T04:19:25.959Z,12.30
2018-09-22T04:21:53.204Z,12.30
2018-09-22T04:24:20.572Z,12.30
2018-09-22T04:26:49.960Z,12.30
2018-09-22T04:29:17.741Z,12.30
2018-09-22T04:31:45.001Z,12.40
2018-09-22T04:34:12.280Z,12.50
2018-09-22T04:36:39.584Z,12.50
2018-09-22T04:39:08.276Z,12.50
2018-09-22T04:41:36.389Z,12.50
2018-09-22T04:44:03.833Z,12.50
2018-09-22T04:46:31.277Z,12.50
2018-09-22T04:48:58.525Z,12.60
2018-09-22T04:51:26.175Z,12.60
2018-09-22T04:53:53.446Z,12.60
2018-09-22T04:56:20.728Z,12.50
2018-09-22T04:58:48.021Z,12.50
2018-09-22T05:01:15.306Z,12.50
2018-09-22T05:03:42.575Z,12.50
2018-09-22T05:06:09.837Z,12.50
2018-09-22T05:08:37.096Z,12.50
2018-09-22T05:11:04.365Z,12.40
2018-09-22T05:13:31.604Z,12.40
2018-09-22T05:15:58.865Z,12.50
2018-09-22T05:18:26.337Z,12.50
2018-09-22T05:20:53.596Z,12.50
2018-09-22T05:23:20.845Z,12.40
2018-09-22T05:25:48.148Z,12.40
2018-09-22T05:28:15.910Z,12.40
2018-09-22T05:30:43.209Z,12.40
2018-09-22T05:33:10.462Z,12.40
2018-09-22T05:35:37.735Z,12.30
2018-09-22T05:38:05.064Z,12.30
2018-09-22T05:40:32.363Z,12.30
2018-09-22T05:42:59.632Z,12.50
2018-09-22T05:45:26.919Z,12.30
2018-09-22T05:47:55.032Z,12.30
2018-09-22T05:50:22.321Z,12.40
2018-09-22T05:52:49.581Z,12.30
2018-09-22T05:55:16.846Z,12.30
2018-09-22T05:57:44.110Z,12.30
2018-09-22T06:00:11.377Z,12.30
2018-09-22T06:02:38.673Z,12.30
2018-09-22T06:05:06.267Z,12.20
2018-09-22T06:07:33.536Z,12.40
2018-09-22T06:10:00.790Z,12.40
2018-09-22T06:12:28.072Z,12.30
2018-09-22T06:14:55.337Z,12.30
2018-09-22T06:17:22.596Z,12.30
2018-09-22T06:19:49.925Z,12.40
2018-09-22T06:22:17.192Z,12.40
2018-09-22T06:24:44.488Z,12.40
2018-09-22T06:27:11.764Z,12.30
2018-09-22T06:29:39.005Z,12.40
2018-09-22T06:32:06.308Z,12.50
2018-09-22T06:34:33.561Z,12.60
2018-09-22T06:37:00.841Z,12.60
2018-09-22T06:39:28.142Z,12.70
2018-09-22T06:41:55.409Z,12.70
2018-09-22T06:44:22.677Z,12.60
2018-09-22T06:46:49.989Z,12.80
2018-09-22T06:49:17.273Z,12.70
2018-09-22T06:51:44.561Z,12.80
2018-09-22T06:54:11.821Z,12.80
2018-09-22T06:56:39.070Z,12.80
2018-09-22T06:59:06.349Z,12.90
2018-09-22T07:01:33.650Z,12.90
2018-09-22T07:04:00.918Z,12.90
2018-09-22T07:06:28.295Z,12.90
2018-09-22T07:08:55.578Z,12.90
2018-09-22T07:11:22.882Z,13.00
2018-09-22T07:13:50.238Z,13.00
2018-09-22T07:16:17.477Z,13.10
2018-09-22T07:18:44.744Z,13.10
2018-09-22T07:21:12.007Z,13.20
2018-09-22T07:23:39.269Z,13.20
2018-09-22T07:26:06.557Z,13.20
2018-09-22T07:28:33.914Z,13.30
2018-09-22T07:31:01.306Z,13.40
2018-09-22T07:33:28.444Z,13.40
2018-09-22T07:35:55.740Z,13.50
2018-09-22T07:38:22.977Z,13.60
2018-09-22T07:40:50.280Z,13.60
2018-09-22T07:43:17.512Z,13.60
2018-09-22T07:45:44.898Z,13.50
2018-09-22T07:48:12.141Z,13.50
2018-09-22T07:50:39.408Z,13.60
2018-09-22T07:53:06.669Z,13.60
2018-09-22T07:55:33.968Z,13.80
2018-09-22T07:58:01.226Z,13.80
2018-09-22T08:00:28.562Z,13.80
2018-09-22T08:02:55.801Z,13.90
2018-09-22T08:05:23.105Z,14.00
2018-09-22T08:07:50.357Z,14.10
2018-09-22T08:10:17.617Z,14.20
2018-09-22T08:12:44.928Z,14.20
2018-09-22T08:15:12.216Z,14.30
2018-09-22T08:17:39.508Z,14.30
2018-09-22T08:20:06.893Z,14.40
2018-09-22T08:22:34.213Z,14.40
2018-09-22T08:25:01.557Z,14.40
2018-09-22T08:27:28.837Z,14.40
2018-09-22T08:29:56.114Z,14.40
2018-09-22T08:32:23.412Z,14.40
2018-09-22T08:34:50.716Z,14.30
2018-09-22T08:37:18.115Z,14.40
2018-09-22T08:39:45.329Z,14.40
2018-09-22T08:42:12.717Z,14.40
2018-09-22T08:44:39.952Z,14.40
2018-09-22T08:47:07.225Z,14.30
2018-09-22T08:49:34.527Z,14.20
2018-09-22T08:52:01.761Z,14.30
2018-09-22T08:54:29.030Z,14.40
2018-09-22T08:56:56.385Z,14.40
2018-09-22T08:59:23.640Z,14.40
2018-09-22T09:01:50.921Z,14.40
2018-09-22T09:04:18.184Z,14.40
2018-09-22T09:06:45.509Z,14.50
2018-09-22T09:09:12.764Z,14.40
2018-09-22T09:11:40.024Z,14.50
2018-09-22T09:14:07.482Z,14.60
2018-09-22T09:16:34.848Z,14.60
2018-09-22T09:19:02.142Z,14.60
2018-09-22T09:21:29.394Z,14.60
2018-09-22T09:23:56.681Z,14.60
2018-09-22T09:26:23.940Z,14.70
2018-09-22T09:28:51.196Z,14.70
2018-09-22T09:31:18.973Z,14.80
2018-09-22T09:33:46.752Z,14.80
2018-09-22T09:36:14.027Z,14.90
2018-09-22T09:38:41.384Z,14.90
2018-09-22T09:41:09.105Z,15.10
2018-09-22T09:43:36.426Z,15.10
2018-09-22T09:46:03.645Z,15.10
2018-09-22T09:48:30.909Z,15.20
2018-09-22T09:50:58.182Z,15.20
2018-09-22T09:53:25.478Z,15.30
2018-09-22T09:55:52.700Z,15.40
2018-09-22T09:58:19.966Z,15.30
2018-09-22T10:00:47.288Z,15.30
2018-09-22T10:03:16.117Z,15.30
2018-09-22T10:05:43.986Z,15.40
2018-09-22T10:08:11.316Z,15.40
2018-09-22T10:10:38.605Z,15.40
2018-09-22T10:13:05.916Z,15.30
2018-09-22T10:15:33.216Z,15.50
2018-09-22T10:18:00.495Z,15.50
2018-09-22T10:20:27.793Z,15.50
2018-09-22T10:22:55.089Z,15.70
2018-09-22T10:25:22.440Z,15.70
2018-09-22T10:27:49.725Z,15.80
2018-09-22T10:30:17.097Z,15.90
2018-09-22T10:32:44.362Z,16.00
2018-09-22T10:35:11.652Z,15.80
2018-09-22T10:37:38.914Z,15.90
2018-09-22T10:40:06.224Z,16.00
2018-09-22T10:42:33.541Z,16.10
2018-09-22T10:45:00.885Z,16.10
2018-09-22T10:47:28.163Z,16.20
2018-09-22T10:49:55.486Z,16.40
2018-09-22T10:52:22.753Z,16.50
2018-09-22T10:54:50.187Z,16.60
2018-09-22T10:57:17.448Z,16.70
2018-09-22T10:59:44.710Z,16.70
2018-09-22T11:02:11.976Z,16.80
2018-09-22T11:04:39.217Z,16.80
2018-09-22T11:07:06.495Z,16.90
2018-09-22T11:09:33.745Z,16.90
2018-09-22T11:12:01.002Z,17.00
2018-09-22T11:14:28.237Z,17.20
2018-09-22T11:16:55.514Z,17.20
2018-09-22T11:19:22.781Z,17.30
2018-09-22T11:21:50.045Z,17.30
2018-09-22T11:24:17.284Z,17.30
2018-09-22T11:26:44.549Z,17.40
2018-09-22T11:29:11.777Z,17.40
2018-09-22T11:31:39.040Z,17.30
2018-09-22T11:34:06.327Z,17.40
2018-09-22T11:36:33.577Z,17.50
2018-09-22T11:39:00.855Z,17.50
2018-09-22T11:41:28.090Z,17.60
2018-09-22T11:43:55.328Z,17.50
2018-09-22T11:46:22.617Z,17.50
2018-09-22T11:48:49.840Z,17.50
2018-09-22T11:51:17.086Z,17.50
2018-09-22T11:53:44.337Z,17.50
2018-09-22T11:56:11.605Z,17.40
2018-09-22T11:58:38.857Z,17.40
2018-09-22T12:01:06.148Z,17.40
2018-09-22T12:03:33.410Z,17.50
2018-09-22T12:06:00.720Z,17.50
2018-09-22T12:08:28.011Z,17.60
2018-09-22T12:10:55.425Z,17.60
2018-09-22T12:13:22.702Z,17.50
2018-09-22T12:15:49.965Z,17.60
2018-09-22T12:18:17.254Z,17.60
2018-09-22T12:20:44.501Z,17.60
2018-09-22T12:23:11.775Z,17.60
2018-09-22T12:25:39.054Z,17.70
2018-09-22T12:28:06.321Z,17.80
2018-09-22T12:30:33.612Z,17.70
2018-09-22T12:33:00.996Z,17.70
2018-09-22T12:35:28.297Z,17.60
2018-09-22T12:37:55.574Z,17.70
2018-09-22T12:40:22.815Z,17.80
2018-09-22T12:42:50.132Z,17.80
2018-09-22T12:45:17.383Z,17.80
2018-09-22T12:47:44.648Z,17.80
2018-09-22T12:50:11.908Z,17.90
2018-09-22T12:52:39.196Z,17.90
2018-09-22T12:55:06.528Z,17.90
2018-09-22T12:57:33.806Z,17.90
2018-09-22T13:00:01.104Z,17.90
2018-09-22T13:02:28.421Z,18.00
2018-09-22T13:04:55.757Z,18.00
2018-09-22T13:07:23.009Z,18.00
2018-09-22T13:09:50.259Z,18.00
2018-09-22T13:12:17.488Z,18.00
2018-09-22T13:14:44.773Z,17.90
2018-09-22T13:17:12.016Z,18.00
2018-09-22T13:19:39.337Z,18.00
2018-09-22T13:22:06.664Z,18.00
2018-09-22T13:24:33.928Z,18.00
2018-09-22T13:27:01.165Z,18.00
2018-09-22T13:29:28.408Z,18.00
2018-09-22T13:31:55.662Z,18.00
2018-09-22T13:34:22.905Z,17.90
2018-09-22T13:36:50.170Z,18.00
2018-09-22T13:39:17.433Z,18.00
2018-09-22T13:41:44.724Z,18.00
2018-09-22T13:44:12.045Z,17.90
2018-09-22T13:46:39.565Z,17.90
2018-09-22T13:49:06.817Z,17.90
2018-09-22T13:51:34.124Z,17.90
2018-09-22T13:54:01.406Z,17.80
2018-09-22T13:56:28.680Z,17.90
2018-09-22T13:58:55.922Z,17.80
2018-09-22T14:01:23.226Z,17.80
2018-09-22T14:03:50.643Z,17.80
2018-09-22T14:06:17.881Z,17.80
2018-09-22T14:08:45.197Z,17.60
2018-09-22T14:11:12.502Z,17.60
2018-09-22T14:13:39.789Z,17.50
2018-09-22T14:16:07.129Z,17.50
2018-09-22T14:18:34.512Z,17.40
2018-09-22T14:21:01.820Z,17.40
2018-09-22T14:23:29.125Z,17.50
2018-09-22T14:25:56.442Z,17.50
2018-09-22T14:28:23.745Z,17.50
2018-09-22T14:30:51.059Z,17.50
2018-09-22T14:33:18.369Z,17.50
2018-09-22T14:35:45.652Z,17.70
2018-09-22T14:38:13.026Z,17.90
2018-09-22T14:40:40.414Z,18.10
2018-09-22T14:43:07.652Z,18.30
2018-09-22T14:45:35.033Z,18.40
2018-09-22T14:48:02.360Z,18.50
2018-09-22T14:50:29.677Z,18.60
2018-09-22T14:52:57.008Z,18.60
2018-09-22T14:55:24.363Z,18.60
2018-09-22T14:57:51.721Z,18.50
2018-09-22T15:00:19.049Z,18.50
2018-09-22T15:02:46.579Z,18.50
2018-09-22T15:05:14.006Z,18.40
2018-09-22T15:07:41.379Z,18.40
2018-09-22T15:10:08.757Z,18.30
2018-09-22T15:12:36.208Z,18.30
2018-09-22T15:15:03.684Z,18.20
2018-09-22T15:17:31.053Z,18.20
2018-09-22T15:19:58.457Z,18.20
2018-09-22T15:22:25.784Z,18.20
2018-09-22T15:24:53.066Z,18.20
2018-09-22T15:27:20.436Z,18.10
2018-09-22T15:29:47.797Z,17.90
2018-09-22T15:32:15.104Z,17.90
2018-09-22T15:34:42.470Z,17.60
2018-09-22T15:37:09.885Z,17.50
2018-09-22T15:39:37.158Z,17.50
2018-09-22T15:42:04.482Z,17.50
2018-09-22T15:44:31.785Z,17.40
2018-09-22T15:46:59.133Z,17.40
2018-09-22T15:49:26.425Z,17.30
2018-09-22T15:51:53.805Z,17.30
2018-09-22T15:54:21.094Z,17.30
2018-09-22T15:56:48.457Z,17.20
2018-09-22T15:59:15.749Z,17.20
2018-09-22T16:01:43.061Z,17.20
2018-09-22T16:04:10.376Z,17.10
2018-09-22T16:06:37.766Z,17.10
2018-09-22T16:09:07.093Z,17.10
2018-09-22T16:11:34.465Z,17.10
2018-09-22T16:14:01.785Z,17.10
2018-09-22T16:16:29.166Z,16.90
2018-09-22T16:18:56.614Z,17.00
2018-09-22T16:21:23.925Z,16.90
2018-09-22T16:23:51.269Z,16.90
2018-09-22T16:26:18.552Z,16.90
2018-09-22T16:28:45.861Z,16.90
2018-09-22T16:31:13.204Z,17.00
2018-09-22T16:33:40.501Z,17.00
2018-09-22T16:36:07.842Z,17.00
2018-09-22T16:38:35.141Z,16.90
2018-09-22T16:41:02.470Z,16.90
2018-09-22T16:43:29.756Z,16.80
2018-09-22T16:45:57.041Z,16.70
2018-09-22T16:48:24.335Z,16.70
2018-09-22T16:50:51.810Z,16.70
2018-09-22T16:53:19.183Z,16.70
2018-09-22T16:55:46.461Z,16.70
2018-09-22T16:58:13.753Z,16.60
2018-09-22T17:00:41.139Z,16.70
2018-09-22T17:03:08.492Z,16.60
2018-09-22T17:05:35.779Z,16.60
2018-09-22T17:08:03.077Z,16.60
2018-09-22T17:10:30.362Z,16.50
2018-09-22T17:12:57.723Z,16.50
2018-09-22T17:15:25.009Z,16.50
2018-09-22T17:17:52.278Z,16.40
2018-09-22T17:20:19.541Z,16.40
2018-09-22T17:22:46.801Z,16.40
2018-09-22T17:25:14.083Z,16.40
2018-09-22T17:27:41.354Z,16.30
2018-09-22T17:30:08.665Z,16.30
2018-09-22T17:32:36.009Z,16.30
2018-09-22T17:35:03.309Z,16.30
2018-09-22T17:37:30.568Z,16.20
2018-09-22T17:39:57.813Z,16.30
2018-09-22T17:42:25.076Z,16.30
2018-09-22T17:44:52.338Z,16.30
2018-09-22T17:47:19.597Z,16.30
2018-09-22T17:49:46.962Z,16.30
2018-09-22T17:52:14.214Z,16.20
2018-09-22T17:54:41.516Z,16.20
2018-09-22T17:57:08.804Z,16.20
2018-09-22T17:59:36.089Z,16.30
2018-09-22T18:02:03.386Z,16.20
2018-09-22T18:04:30.728Z,16.10
2018-09-22T18:06:57.986Z,16.00
2018-09-22T18:09:25.265Z,16.00
2018-09-22T18:11:52.536Z,15.90
2018-09-22T18:14:19.816Z,15.70
2018-09-22T18:16:47.149Z,15.70
2018-09-22T18:19:14.392Z,15.70
2018-09-22T18:21:41.770Z,15.60
2018-09-22T18:24:09.017Z,15.60
2018-09-22T18:26:36.386Z,15.40
2018-09-22T18:29:03.711Z,15.40
2018-09-22T18:31:30.989Z,15.40
2018-09-22T18:33:58.319Z,15.30
2018-09-22T18:36:25.643Z,15.20
2018-09-22T18:38:52.913Z,15.20
2018-09-22T18:41:20.254Z,15.20
2018-09-22T18:43:47.497Z,15.20
2018-09-22T18:46:14.822Z,15.10
2018-09-22T18:48:42.117Z,15.10
2018-09-22T18:51:09.524Z,14.90
2018-09-22T18:53:36.753Z,14.80
2018-09-22T18:56:04.017Z,14.70
2018-09-22T18:58:31.281Z,14.60
2018-09-22T19:00:58.544Z,14.60
2018-09-22T19:03:25.849Z,14.60
2018-09-22T19:05:53.191Z,14.60
2018-09-22T19:08:20.453Z,14.60
2018-09-22T19:10:47.717Z,14.60
2018-09-22T19:13:18.944Z,14.60
2018-09-22T19:15:49.111Z,14.50
2018-09-22T19:18:22.073Z,14.50
2018-09-22T19:20:52.166Z,14.50
2018-09-22T19:23:23.313Z,14.50
2018-09-22T19:25:54.229Z,14.50
2018-09-22T19:28:25.501Z,14.50
2018-09-22T19:30:54.946Z,14.40
2018-09-22T19:33:29.959Z,14.40
2018-09-22T19:36:06.953Z,14.40
2018-09-22T19:38:53.626Z,14.30
2018-09-22T19:41:28.521Z,14.30
2018-09-22T19:44:00.859Z,14.30
2018-09-22T19:46:32.989Z,14.20
2018-09-22T19:50:05.158Z,14.30
2018-09-22T19:52:36.101Z,14.20
2018-09-22T19:55:03.458Z,14.10
2018-09-22T19:57:30.782Z,14.10
2018-09-22T19:59:58.052Z,14.00
2018-09-22T20:02:25.409Z,14.00
2018-09-22T20:04:52.698Z,14.10
2018-09-22T20:07:20.317Z,14.10
2018-09-22T20:09:47.609Z,14.00
2018-09-22T20:12:14.929Z,14.10
2018-09-22T20:14:42.225Z,14.10
2018-09-22T20:17:09.584Z,14.00
2018-09-22T20:19:36.870Z,14.00
2018-09-22T20:22:05.757Z,14.00
2018-09-22T20:24:33.162Z,14.00
2018-09-22T20:27:00.472Z,14.00
2018-09-22T20:29:27.796Z,14.00
2018-09-22T20:31:55.134Z,14.00
2018-09-22T20:34:22.454Z,14.00
2018-09-22T20:36:49.753Z,14.00
2018-09-22T20:39:17.057Z,14.00
2018-09-22T20:41:44.349Z,13.90
2018-09-22T20:44:11.694Z,13.80
2018-09-22T20:46:39.226Z,13.80
2018-09-22T20:49:06.601Z,13.90
2018-09-22T20:51:33.972Z,14.20
2018-09-22T20:54:01.319Z,14.40
2018-09-22T20:56:28.601Z,14.40
2018-09-22T20:58:55.973Z,14.40
2018-09-22T21:01:23.259Z,14.50
2018-09-22T21:03:50.910Z,14.60
2018-09-22T21:06:18.441Z,14.60
2018-09-22T21:08:45.781Z,14.50
2018-09-22T21:11:13.098Z,14.50
2018-09-22T21:13:40.385Z,14.60
2018-09-22T21:16:07.817Z,14.60
2018-09-22T21:18:35.141Z,14.60
2018-09-22T21:21:02.456Z,14.60
2018-09-22T21:23:29.733Z,14.60
2018-09-22T21:25:57.112Z,14.60
2018-09-22T21:28:24.445Z,14.40
2018-09-22T21:30:51.755Z,14.30
2018-09-22T21:33:19.178Z,14.20
2018-09-22T21:35:46.630Z,14.10
2018-09-22T21:38:14.074Z,14.20
2018-09-22T21:40:41.450Z,14.20
2018-09-22T21:43:08.737Z,14.10
2018-09-22T21:45:36.057Z,14.10
2018-09-22T21:48:03.857Z,14.00
2018-09-22T21:50:31.270Z,14.00
2018-09-22T21:52:58.631Z,14.00
2018-09-22T21:55:25.979Z,14.10
2018-09-22T21:57:53.441Z,14.20
2018-09-22T22:00:20.827Z,14.20
2018-09-22T22:02:48.158Z,14.30
2018-09-22T22:05:15.465Z,14.40
2018-09-22T22:07:42.747Z,14.40
2018-09-22T22:10:10.149Z,14.40
2018-09-22T22:12:37.454Z,14.30
2018-09-22T22:15:04.805Z,14.10
2018-09-22T22:17:32.095Z,14.20
2018-09-22T22:19:59.405Z,14.30
2018-09-22T22:22:26.767Z,14.30
2018-09-22T22:24:54.093Z,14.30
2018-09-22T22:27:21.564Z,14.30
2018-09-22T22:29:48.905Z,14.30
2018-09-22T22:32:16.663Z,14.20
2018-09-22T22:34:43.973Z,14.20
2018-09-22T22:37:11.450Z,14.20
2018-09-22T22:39:38.721Z,14.30
2018-09-22T22:42:06.214Z,14.30
2018-09-22T22:44:33.514Z,14.20
2018-09-22T22:47:00.827Z,14.20
2018-09-22T22:49:28.101Z,14.10
2018-09-22T22:51:55.402Z,14.10
2018-09-22T22:54:22.713Z,14.20
2018-09-22T22:56:50.117Z,14.20
2018-09-22T22:59:17.505Z,14.20
2018-09-22T23:01:44.904Z,14.20
2018-09-22T23:04:12.169Z,14.10
2018-09-22T23:06:39.473Z,14.10
2018-09-22T23:09:07.509Z,14.10
2018-09-22T23:11:34.846Z,14.10
2018-09-22T23:14:02.109Z,14.20
2018-09-22T23:16:29.355Z,14.10
2018-09-22T23:18:56.610Z,14.10
2018-09-22T23:21:23.901Z,14.10
2018-09-22T23:23:51.225Z,14.10
2018-09-22T23:26:18.548Z,14.10
2018-09-22T23:28:45.838Z,13.90
2018-09-22T23:31:13.119Z,13.90
2018-09-22T23:33:40.416Z,13.80
2018-09-22T23:36:07.686Z,13.80
2018-09-22T23:38:34.933Z,13.80
2018-09-22T23:41:02.269Z,13.90
2018-09-22T23:43:29.581Z,13.90
2018-09-22T23:45:56.841Z,13.90
2018-09-22T23:48:24.140Z,14.00
2018-09-22T23:50:51.401Z,14.00
2018-09-22T23:53:18.637Z,13.80
2018-09-22T23:55:45.903Z,13.80
2018-09-22T23:58:13.157Z,13.80
